Time;durP1;ratioP1;P1;durP2;ratioP2;P2;SDS_P1;SDS_P2;PMS_P1;PMS_P2;Temp;Humidity;BMP_temperature;BMP_pressure;BME280_temperature;BME280_humidity;BME280_pressure;Samples;Min_cycle;Max_cycle;Signal;HPM_P1;HPM_P2
2021/11/13 00:01:46;;;;;;;28.95;17.30;;;;;;;10.50;89.67;100926.06;5045400;28;20101;-68
2021/11/13 00:04:11;;;;;;;32.40;19.45;;;;;;;10.49;89.90;100929.56;5043880;28;20017;-69
2021/11/13 00:06:37;;;;;;;34.03;19.38;;;;;;;10.53;89.68;100928.69;5044184;28;20033;-69
2021/11/13 00:09:04;;;;;;;34.42;18.35;;;;;;;10.48;90.22;100918.19;5040247;28;20030;-68
2021/11/13 00:11:30;;;;;;;29.42;17.65;;;;;;;10.50;90.35;100915.56;5044534;28;20033;-66
2021/11/13 00:14:01;;;;;;;29.90;17.65;;;;;;;10.52;90.16;100917.28;5045275;28;20173;-65
2021/11/13 00:16:26;;;;;;;33.05;18.55;;;;;;;10.49;90.67;100912.06;5044130;28;20049;-66
2021/11/13 00:18:52;;;;;;;34.20;19.00;;;;;;;10.44;90.98;100905.91;5045035;28;20613;-66
2021/11/13 00:21:17;;;;;;;33.17;18.35;;;;;;;10.48;90.85;100905.03;5044546;28;20057;-66
2021/11/13 00:23:42;;;;;;;31.95;18.23;;;;;;;10.48;90.54;100904.16;5044003;28;20069;-67
2021/11/13 00:26:08;;;;;;;30.85;18.23;;;;;;;10.47;90.89;100900.69;5044284;28;20425;-66
2021/11/13 00:28:33;;;;;;;31.83;16.77;;;;;;;10.43;91.23;100896.28;5041784;28;20488;-64
2021/11/13 00:30:59;;;;;;;28.45;17.75;;;;;;;10.42;91.69;100888.41;5044316;28;20136;-64
2021/11/13 00:33:25;;;;;;;28.17;16.30;;;;;;;10.43;91.74;100884.91;5044364;28;20101;-65
2021/11/13 00:35:50;;;;;;;27.33;16.30;;;;;;;10.44;91.45;100884.03;5044606;28;20033;-66
2021/11/13 00:38:16;;;;;;;31.40;15.35;;;;;;;10.51;91.26;100872.66;5044543;28;20029;-66
2021/11/13 00:40:42;;;;;;;25.42;15.38;;;;;;;10.52;91.29;100882.28;5042305;28;20033;-67
2021/11/13 00:43:07;;;;;;;22.65;14.55;;;;;;;10.53;91.06;100878.78;5042445;28;20030;-66
2021/11/13 00:45:32;;;;;;;26.70;16.13;;;;;;;10.52;91.39;100879.66;5044615;28;20100;-66
2021/11/13 00:47:58;;;;;;;24.55;14.90;;;;;;;10.48;91.68;100875.28;5043577;28;20036;-67
2021/11/13 00:50:23;;;;;;;25.80;15.63;;;;;;;10.50;92.24;100876.16;5044294;28;20045;-66
2021/11/13 00:52:49;;;;;;;22.95;14.95;;;;;;;10.51;92.15;100870.03;5044543;28;20021;-67
2021/11/13 00:55:16;;;;;;;21.27;14.07;;;;;;;10.56;91.88;100884.00;5043900;28;20454;-66
2021/11/13 00:57:43;;;;;;;19.35;13.98;;;;;;;10.54;91.95;100891.03;5043053;28;20059;-66
2021/11/13 01:00:10;;;;;;;23.63;14.35;;;;;;;10.53;92.16;100890.16;5043981;28;20032;-66
2021/11/13 01:02:35;;;;;;;22.45;14.13;;;;;;;10.51;92.52;100876.16;5044111;28;20109;-67
2021/11/13 01:05:01;;;;;;;24.88;14.18;;;;;;;10.54;92.47;100875.25;5044427;28;20037;-66
2021/11/13 01:07:26;;;;;;;21.85;13.23;;;;;;;10.54;92.65;100872.63;5047567;28;20033;-67
2021/11/13 01:09:52;;;;;;;21.13;12.73;;;;;;;10.61;92.04;100873.50;5041889;28;20025;-65
2021/11/13 01:12:18;;;;;;;24.05;12.32;;;;;;;10.63;92.16;100863.88;5044339;28;20029;-64
2021/11/13 01:14:43;;;;;;;19.52;12.85;;;;;;;10.61;92.42;100869.13;5043214;28;20061;-65
2021/11/13 01:17:11;;;;;;;20.08;11.68;;;;;;;10.63;92.50;100863.88;5042524;28;20117;-65
2021/11/13 01:19:38;;;;;;;17.67;10.77;;;;;;;10.65;92.82;100862.13;5043046;28;20025;-64
2021/11/13 01:22:04;;;;;;;19.13;10.63;;;;;;;10.70;92.42;100860.38;5042801;28;20075;-64
2021/11/13 01:24:29;;;;;;;16.48;10.75;;;;;;;10.71;92.33;100867.34;5044132;28;20466;-64
2021/11/13 01:26:55;;;;;;;23.40;11.15;;;;;;;10.70;92.76;100863.00;5041860;28;20029;-64
2021/11/13 01:29:20;;;;;;;20.58;11.32;;;;;;;10.70;93.10;100865.63;5043988;28;20132;-64
2021/11/13 01:31:47;;;;;;;21.23;10.77;;;;;;;10.71;92.99;100869.97;5044082;28;20038;-64
2021/11/13 01:34:13;;;;;;;23.15;10.07;;;;;;;10.71;93.39;100864.72;5043621;28;20029;-65
2021/11/13 01:36:38;;;;;;;20.95;10.30;;;;;;;10.72;93.43;100864.72;5043081;28;20040;-65
2021/11/13 01:39:03;;;;;;;25.23;9.82;;;;;;;10.74;93.51;100862.09;5040945;28;20029;-65
2021/11/13 01:41:29;;;;;;;19.67;9.38;;;;;;;10.78;93.50;100862.97;5043486;28;20057;-66
2021/11/13 01:43:55;;;;;;;18.95;9.35;;;;;;;10.79;93.17;100860.31;5043586;28;20112;-66
2021/11/13 01:46:21;;;;;;;21.58;7.63;;;;;;;10.80;93.11;100858.59;5043421;28;20068;-66
2021/11/13 01:48:46;;;;;;;17.95;6.68;;;;;;;10.86;93.21;100856.81;5041087;28;20108;-67
2021/11/13 01:51:21;;;;;;;20.27;6.25;;;;;;;10.93;92.98;100855.03;5043784;28;20044;-67
2021/11/13 01:53:49;;;;;;;22.75;5.70;;;;;;;10.93;92.95;100861.16;5043097;28;20033;-66
2021/11/13 01:56:19;;;;;;;22.80;4.75;;;;;;;10.96;93.16;100854.16;5043312;28;20048;-68
2021/11/13 01:58:47;;;;;;;19.55;4.57;;;;;;;10.95;93.18;100860.31;5041919;28;20044;-67
2021/11/13 02:01:13;;;;;;;25.52;4.55;;;;;;;10.97;93.19;100854.16;5043906;28;20038;-67
2021/11/13 02:03:38;;;;;;;24.83;4.25;;;;;;;10.99;93.19;100856.78;5042896;28;20041;-67
2021/11/13 02:06:04;;;;;;;17.65;3.90;;;;;;;11.00;93.36;100854.16;5042370;28;20030;-67
2021/11/13 02:08:29;;;;;;;23.77;5.00;;;;;;;11.03;93.35;100855.88;5041987;28;20033;-67
2021/11/13 02:10:55;;;;;;;18.27;3.30;;;;;;;11.07;93.25;100849.72;5042338;28;20037;-67
2021/11/13 02:13:20;;;;;;;25.63;4.57;;;;;;;11.09;93.20;100846.22;5043824;28;20038;-67
2021/11/13 02:15:46;;;;;;;20.00;3.50;;;;;;;11.13;93.30;100841.81;5042897;28;20049;-67
2021/11/13 02:18:11;;;;;;;21.05;3.78;;;;;;;11.16;93.08;100840.94;5042659;28;20093;-67
2021/11/13 02:20:38;;;;;;;22.25;3.10;;;;;;;11.18;92.90;100847.06;5042537;28;20030;-66
2021/11/13 02:23:12;;;;;;;20.45;3.40;;;;;;;11.22;92.91;100844.41;5042810;28;20041;-69
2021/11/13 02:25:37;;;;;;;23.92;3.38;;;;;;;11.23;93.01;100840.91;5042676;28;20397;-67
2021/11/13 02:28:05;;;;;;;18.83;2.90;;;;;;;11.27;92.62;100839.16;5043133;28;20060;-67
2021/11/13 02:30:30;;;;;;;17.50;3.05;;;;;;;11.29;92.47;100840.88;5046727;28;20392;-67
2021/11/13 02:32:56;;;;;;;26.45;3.00;;;;;;;11.31;92.45;100838.25;5047429;28;20057;-66
2021/11/13 02:35:25;;;;;;;22.48;3.55;;;;;;;11.29;92.35;100843.50;5045535;28;20144;-67
2021/11/13 02:37:51;;;;;;;24.05;3.15;;;;;;;11.34;92.30;100840.84;5047427;28;20036;-67
2021/11/13 02:40:17;;;;;;;27.75;3.50;;;;;;;11.32;91.89;100846.13;5041964;28;20145;-67
2021/11/13 02:42:44;;;;;;;18.35;3.78;;;;;;;11.36;92.15;100840.84;5044536;28;20047;-67
2021/11/13 02:45:12;;;;;;;29.17;3.15;;;;;;;11.34;92.18;100843.47;5046168;28;20422;-66
2021/11/13 02:47:44;;;;;;;19.98;3.60;;;;;;;11.36;92.33;100841.75;5047155;28;20479;-64
2021/11/13 02:50:12;;;;;;;20.20;3.55;;;;;;;11.37;92.07;100829.44;5046173;28;20056;-65
2021/11/13 02:52:57;;;;;;;24.90;3.58;;;;;;;11.35;92.34;100829.44;5047137;28;20152;-64
2021/11/13 02:55:23;;;;;;;14.95;3.05;;;;;;;11.33;92.44;100833.84;5038863;28;20030;-64
2021/11/13 02:57:50;;;;;;;16.48;2.58;;;;;;;11.34;92.38;100837.34;5045753;28;20033;-65
2021/11/13 03:00:19;;;;;;;18.55;3.03;;;;;;;11.35;92.21;100832.09;5046227;28;20052;-65
2021/11/13 03:02:44;;;;;;;17.80;2.57;;;;;;;11.32;92.30;100829.44;5046971;28;20095;-66
2021/11/13 03:05:27;;;;;;;19.38;2.95;;;;;;;11.30;92.38;100831.22;5045738;28;20075;-66
2021/11/13 03:07:54;;;;;;;21.98;3.08;;;;;;;11.30;92.70;100837.38;5046192;28;20037;-66
2021/11/13 03:10:20;;;;;;;17.13;2.70;;;;;;;11.30;92.70;100837.38;5044371;28;20044;-66
2021/11/13 03:12:46;;;;;;;19.98;2.78;;;;;;;11.31;92.55;100847.00;5046032;28;20089;-66
2021/11/13 03:15:14;;;;;;;24.77;3.20;;;;;;;11.34;92.62;100847.88;5046535;28;20056;-65
2021/11/13 03:17:40;;;;;;;18.30;2.72;;;;;;;11.49;91.62;100835.53;5046635;28;20459;-64
2021/11/13 03:20:15;;;;;;;12.38;2.50;;;;;;;11.62;90.26;100825.78;5045524;28;20061;-64
2021/11/13 03:22:41;;;;;;;14.73;2.70;;;;;;;11.60;89.91;100832.81;5046115;28;20041;-64
2021/11/13 03:25:10;;;;;;;15.95;3.63;;;;;;;11.56;90.07;100843.38;5046821;28;20034;-63
2021/11/13 03:27:37;;;;;;;14.63;2.53;;;;;;;11.59;89.81;100846.00;5043137;28;20064;-65
2021/11/13 03:30:05;;;;;;;14.15;2.85;;;;;;;11.60;88.97;100853.88;5045817;28;20061;-65
2021/11/13 03:32:31;;;;;;;9.07;2.60;;;;;;;11.61;89.26;100846.88;5046927;28;20056;-65
2021/11/13 03:34:56;;;;;;;6.88;1.77;;;;;;;11.71;87.63;100849.41;5044239;28;20060;-66
2021/11/13 03:37:22;;;;;;;7.70;1.98;;;;;;;11.75;87.23;100846.78;5046291;28;20042;-66
2021/11/13 03:39:47;;;;;;;12.00;1.55;;;;;;;11.73;86.89;100843.28;5044782;28;20486;-66
2021/11/13 03:42:13;;;;;;;7.05;1.40;;;;;;;11.75;86.38;100855.53;5045404;28;20052;-66
2021/11/13 03:44:39;;;;;;;9.50;1.70;;;;;;;11.73;86.62;100853.81;5046100;28;20026;-67
2021/11/13 03:47:04;;;;;;;10.32;1.80;;;;;;;11.70;86.74;100852.03;5044848;28;20552;-67
2021/11/13 03:49:29;;;;;;;11.05;2.10;;;;;;;11.73;85.85;100859.06;5044814;28;20481;-67
2021/11/13 03:51:55;;;;;;;5.35;1.90;;;;;;;11.63;87.06;100847.72;5046033;28;20037;-67
2021/11/13 03:54:20;;;;;;;7.80;1.70;;;;;;;11.70;86.31;100857.31;5046058;28;20064;-68
2021/11/13 03:56:45;;;;;;;10.77;1.85;;;;;;;11.61;86.92;100860.88;5046258;28;20033;-68
2021/11/13 03:59:11;;;;;;;12.65;2.55;;;;;;;11.52;87.51;100863.56;5045231;28;20029;-68
2021/11/13 04:01:36;;;;;;;11.13;2.78;;;;;;;11.47;87.55;100860.97;5044907;28;20037;-67
2021/11/13 04:04:02;;;;;;;9.18;1.83;;;;;;;11.44;88.02;100870.63;5045056;28;20524;-67
2021/11/13 04:06:28;;;;;;;12.57;1.98;;;;;;;11.40;87.27;100858.34;5045829;28;20055;-67
2021/11/13 04:08:54;;;;;;;13.45;2.58;;;;;;;11.35;87.95;100862.78;5043960;28;20044;-67
2021/11/13 04:11:20;;;;;;;12.35;2.38;;;;;;;11.37;88.11;100863.66;5044390;28;20080;-67
2021/11/13 04:13:45;;;;;;;13.43;2.60;;;;;;;11.42;87.57;100864.50;5045714;28;20880;-66
2021/11/13 04:16:11;;;;;;;8.18;2.63;;;;;;;11.39;87.97;100864.50;5046888;28;20033;-67
2021/11/13 04:18:36;;;;;;;7.72;2.10;;;;;;;11.35;89.28;100874.19;5044974;28;20037;-68
2021/11/13 04:21:03;;;;;;;12.98;2.63;;;;;;;11.55;87.45;100889.88;5045024;28;20021;-67
2021/11/13 04:23:29;;;;;;;10.95;1.75;;;;;;;11.57;86.75;100888.13;5060238;28;20187;-68
2021/11/13 04:25:55;;;;;;;8.35;1.63;;;;;;;11.62;86.73;100878.41;5044939;28;20025;-68
2021/11/13 04:28:21;;;;;;;6.65;1.10;;;;;;;11.65;86.26;100891.56;5045450;28;20034;-68
2021/11/13 04:30:47;;;;;;;5.80;1.20;;;;;;;11.62;86.02;100888.94;5044762;28;20029;-68
2021/11/13 04:33:12;;;;;;;9.55;2.47;;;;;;;11.56;86.52;100890.75;5044872;28;20032;-67
2021/11/13 04:35:49;;;;;;;8.90;1.67;;;;;;;11.58;86.46;100895.09;5044097;28;20022;-67
2021/11/13 04:38:15;;;;;;;5.38;1.42;;;;;;;11.58;86.47;100896.88;5044825;28;20113;-68
2021/11/13 04:40:42;;;;;;;8.68;1.70;;;;;;;11.54;86.49;100896.00;5042472;28;20033;-68
2021/11/13 04:43:07;;;;;;;13.15;2.08;;;;;;;11.54;86.35;100896.00;5043683;28;20053;-68
2021/11/13 04:45:33;;;;;;;14.10;2.17;;;;;;;11.44;87.36;100907.47;5045133;28;20040;-68
2021/11/13 04:47:58;;;;;;;8.70;2.20;;;;;;;11.36;87.96;100904.88;5044574;28;20056;-68
2021/11/13 04:50:26;;;;;;;8.35;2.08;;;;;;;11.36;87.77;100907.50;5043766;28;20129;-68
2021/11/13 04:52:53;;;;;;;11.88;2.30;;;;;;;11.28;88.51;100904.00;5044749;28;20109;-68
2021/11/13 04:55:19;;;;;;;9.32;2.30;;;;;;;11.26;89.13;100904.00;5044209;28;20052;-68
2021/11/13 04:57:47;;;;;;;11.45;2.38;;;;;;;11.23;89.62;100906.66;5044050;28;20147;-68
2021/11/13 05:00:14;;;;;;;12.55;2.55;;;;;;;11.20;89.65;100904.03;5044592;28;20101;-68
2021/11/13 05:02:40;;;;;;;8.07;2.00;;;;;;;11.25;89.69;100909.31;5042995;28;20436;-69
2021/11/13 05:05:07;;;;;;;13.00;2.42;;;;;;;11.30;89.15;100911.03;5044669;28;20033;-67
2021/11/13 05:07:32;;;;;;;8.50;2.35;;;;;;;11.38;89.10;100915.38;5043519;28;20034;-67
2021/11/13 05:09:58;;;;;;;8.23;1.92;;;;;;;11.50;88.54;100916.19;5042420;28;20049;-66
2021/11/13 05:12:24;;;;;;;7.28;2.53;;;;;;;11.41;89.05;100916.22;5043428;28;20120;-64
2021/11/13 05:14:49;;;;;;;7.63;2.05;;;;;;;11.37;89.59;100913.63;5044579;28;20051;-65
2021/11/13 05:17:15;;;;;;;11.18;1.92;;;;;;;11.39;89.39;100919.75;5044742;28;20037;-63
2021/11/13 05:19:40;;;;;;;5.15;1.73;;;;;;;11.34;89.55;100919.75;5043868;28;20544;-63
2021/11/13 05:22:07;;;;;;;11.88;2.20;;;;;;;11.27;90.61;100920.69;5043106;28;20045;-63
2021/11/13 05:24:33;;;;;;;9.13;2.13;;;;;;;11.23;91.21;100916.31;5043251;28;20048;-64
2021/11/13 05:26:59;;;;;;;7.10;1.75;;;;;;;11.30;90.64;100928.56;5043206;28;20041;-65
2021/11/13 05:29:24;;;;;;;10.10;2.38;;;;;;;11.32;90.54;100914.53;5044480;28;20030;-65
2021/11/13 05:31:49;;;;;;;8.40;1.70;;;;;;;11.37;90.38;100932.91;5043675;28;20040;-66
2021/11/13 05:34:15;;;;;;;8.63;1.90;;;;;;;11.43;89.95;100929.38;5043649;28;20034;-67
2021/11/13 05:36:41;;;;;;;9.13;2.05;;;;;;;11.40;90.05;100934.66;5044081;28;20101;-67
2021/11/13 05:39:07;;;;;;;7.25;2.20;;;;;;;11.38;89.75;100928.53;5042348;28;20052;-67
2021/11/13 05:41:33;;;;;;;6.03;1.30;;;;;;;11.40;89.86;100930.28;5042794;28;20481;-67
2021/11/13 05:43:59;;;;;;;10.65;1.67;;;;;;;11.46;89.10;100932.03;5042963;28;20051;-68
2021/11/13 05:46:24;;;;;;;7.60;1.20;;;;;;;11.51;89.01;100936.38;5044302;28;20042;-68
2021/11/13 05:48:50;;;;;;;7.88;1.23;;;;;;;11.51;89.34;100946.00;5050638;28;20116;-68
2021/11/13 05:51:15;;;;;;;5.50;1.00;;;;;;;11.46;89.77;100950.44;5043443;28;20033;-68
2021/11/13 05:53:40;;;;;;;6.05;1.27;;;;;;;11.39;89.96;100951.34;5043390;28;20025;-68
2021/11/13 05:56:06;;;;;;;12.25;1.60;;;;;;;11.35;90.39;100955.72;5044286;28;20111;-68
2021/11/13 05:58:31;;;;;;;11.35;1.88;;;;;;;11.30;91.14;100952.22;5042110;28;20037;-68
2021/11/13 06:00:56;;;;;;;7.88;1.35;;;;;;;11.29;91.05;100947.88;5042717;28;20041;-68
2021/11/13 06:03:22;;;;;;;5.43;1.30;;;;;;;11.36;91.08;100951.34;5042719;28;20108;-68
2021/11/13 06:05:47;;;;;;;7.03;1.52;;;;;;;11.39;90.57;100956.59;5042668;28;20567;-68
2021/11/13 06:08:13;;;;;;;8.48;1.48;;;;;;;11.40;90.45;100958.31;5050140;28;20064;-68
2021/11/13 06:10:39;;;;;;;8.10;1.33;;;;;;;11.42;90.25;100964.50;5041395;28;20091;-69
2021/11/13 06:13:05;;;;;;;10.63;1.70;;;;;;;11.42;90.51;100962.72;5042065;28;20053;-68
2021/11/13 06:15:30;;;;;;;14.20;2.00;;;;;;;11.42;90.17;100960.09;5043118;28;20059;-69
2021/11/13 06:17:57;;;;;;;6.70;1.70;;;;;;;11.40;90.61;100967.13;5043419;28;20035;-69
2021/11/13 06:20:23;;;;;;;5.68;1.52;;;;;;;11.45;90.73;100975.00;5041217;28;20473;-68
2021/11/13 06:22:48;;;;;;;6.95;1.75;;;;;;;11.44;90.50;100975.88;5034688;28;20049;-69
2021/11/13 06:25:14;;;;;;;11.38;1.73;;;;;;;11.45;91.05;100977.63;5041803;28;20041;-69
2021/11/13 06:27:40;;;;;;;7.95;1.90;;;;;;;11.42;90.99;100975.00;5043956;28;20046;-69
2021/11/13 06:30:10;;;;;;;6.90;1.70;;;;;;;11.38;91.16;100976.78;5041435;28;20041;-68
2021/11/13 06:32:36;;;;;;;5.72;2.03;;;;;;;11.35;91.31;100986.44;5042808;28;20045;-69
2021/11/13 06:35:02;;;;;;;6.53;1.95;;;;;;;11.36;90.76;100985.53;5039748;28;20052;-68
2021/11/13 06:37:29;;;;;;;8.60;1.90;;;;;;;11.32;90.75;100987.28;5042963;28;20060;-69
2021/11/13 06:39:55;;;;;;;8.95;2.00;;;;;;;11.30;91.10;100992.59;5037752;28;20112;-69
2021/11/13 06:42:20;;;;;;;5.38;2.20;;;;;;;11.28;91.30;100990.81;5040875;28;20036;-69
2021/11/13 06:44:46;;;;;;;7.47;2.20;;;;;;;11.25;91.52;100996.97;5043066;28;20036;-69
2021/11/13 06:47:11;;;;;;;7.25;2.00;;;;;;;11.29;91.49;100995.22;5040301;28;20539;-68
2021/11/13 06:49:37;;;;;;;9.63;2.00;;;;;;;11.27;91.66;100996.97;5035026;28;20045;-67
2021/11/13 06:52:02;;;;;;;8.48;2.40;;;;;;;11.23;91.81;100996.09;5042150;28;20038;-67
2021/11/13 06:54:28;;;;;;;5.20;1.83;;;;;;;11.21;91.93;101010.09;5036571;28;20065;-67
2021/11/13 06:56:53;;;;;;;9.43;2.25;;;;;;;11.18;91.61;101010.13;5043390;28;20030;-66
2021/11/13 06:59:20;;;;;;;7.15;1.90;;;;;;;11.17;91.70;101013.63;5040871;28;20040;-67
2021/11/13 07:01:46;;;;;;;13.60;2.10;;;;;;;11.15;92.15;101015.38;5041570;28;21034;-67
2021/11/13 07:04:11;;;;;;;5.80;2.00;;;;;;;11.12;92.44;101019.78;5042299;28;20449;-67
2021/11/13 07:06:36;;;;;;;6.15;1.95;;;;;;;11.11;92.65;101032.91;5042674;28;20037;-67
2021/11/13 07:09:02;;;;;;;7.75;2.28;;;;;;;11.11;92.73;101038.19;5041206;28;20117;-66
2021/11/13 07:11:28;;;;;;;9.55;2.42;;;;;;;11.09;92.91;101039.94;5041456;28;20057;-67
2021/11/13 07:13:54;;;;;;;10.10;2.45;;;;;;;11.08;93.53;101046.09;5042903;28;20048;-67
2021/11/13 07:16:19;;;;;;;8.57;2.70;;;;;;;11.08;93.28;101048.72;5043252;28;21455;-68
2021/11/13 07:18:44;;;;;;;9.60;3.05;;;;;;;11.17;93.28;101053.09;5044807;28;20054;-68
2021/11/13 07:21:10;;;;;;;9.13;2.83;;;;;;;11.22;92.69;101059.22;5046882;28;20447;-68
2021/11/13 07:23:36;;;;;;;10.80;2.70;;;;;;;11.24;92.46;101060.97;5046017;28;20049;-68
2021/11/13 07:26:03;;;;;;;13.82;3.25;;;;;;;11.26;92.23;101055.72;5047180;28;20044;-67
2021/11/13 07:28:39;;;;;;;9.32;2.35;;;;;;;11.29;92.49;101063.59;5045819;28;20025;-68
2021/11/13 07:31:07;;;;;;;11.35;2.20;;;;;;;11.32;92.11;101077.63;5045943;28;20037;-68
2021/11/13 07:33:32;;;;;;;8.82;2.20;;;;;;;11.35;92.22;101073.25;5045696;28;20108;-70
2021/11/13 07:35:58;;;;;;;10.25;2.28;;;;;;;11.36;92.32;101077.63;5045221;28;20026;-68
2021/11/13 07:38:23;;;;;;;11.05;2.33;;;;;;;11.39;92.13;101082.88;5042703;28;20042;-70
2021/11/13 07:40:50;;;;;;;7.43;1.85;;;;;;;11.44;92.06;101086.41;5044964;28;20064;-68
2021/11/13 07:43:15;;;;;;;12.60;1.88;;;;;;;11.54;91.91;101093.38;5045220;28;20053;-69
2021/11/13 07:45:40;;;;;;;10.77;2.33;;;;;;;11.59;91.38;101093.38;5046076;28;20041;-69
2021/11/13 07:48:07;;;;;;;10.30;1.90;;;;;;;11.63;91.34;101097.75;5046206;28;20030;-69
2021/11/13 07:50:35;;;;;;;8.75;2.30;;;;;;;11.63;91.15;101095.13;5046020;28;20037;-69
2021/11/13 07:53:02;;;;;;;8.35;2.10;;;;;;;11.68;91.16;101094.25;5045904;28;20052;-68
2021/11/13 07:55:28;;;;;;;6.32;1.83;;;;;;;11.72;90.69;101095.13;5045524;28;20060;-68
2021/11/13 07:57:54;;;;;;;6.47;1.88;;;;;;;11.71;90.84;101101.25;5044947;28;20037;-68
2021/11/13 08:00:20;;;;;;;6.45;1.98;;;;;;;11.67;90.53;101100.38;5045693;28;20068;-68
2021/11/13 08:02:46;;;;;;;8.70;1.90;;;;;;;11.75;89.80;101110.03;5045942;28;20030;-67
2021/11/13 08:05:12;;;;;;;8.82;1.73;;;;;;;11.81;90.10;101108.22;5045894;28;20504;-69
2021/11/13 08:07:38;;;;;;;7.90;1.75;;;;;;;11.82;89.57;101109.13;5044590;28;20512;-68
2021/11/13 08:10:06;;;;;;;4.97;1.80;;;;;;;11.79;89.77;101111.75;5042700;28;20121;-68
2021/11/13 08:12:31;;;;;;;8.88;1.77;;;;;;;11.74;89.81;101111.78;5044813;28;20030;-68
2021/11/13 08:14:56;;;;;;;6.97;1.83;;;;;;;11.77;89.80;101116.16;5044341;28;20029;-69
2021/11/13 08:17:22;;;;;;;7.43;1.83;;;;;;;11.84;89.41;101117.91;5045774;28;20029;-68
2021/11/13 08:19:48;;;;;;;10.27;2.42;;;;;;;11.84;89.47;101120.53;5044177;28;20063;-69
2021/11/13 08:22:14;;;;;;;6.13;1.80;;;;;;;11.82;89.82;101127.56;5045059;28;20064;-69
2021/11/13 08:24:39;;;;;;;6.47;1.50;;;;;;;11.83;89.82;101124.94;5044735;28;20037;-69
2021/11/13 08:27:05;;;;;;;6.65;1.95;;;;;;;11.96;88.87;101130.19;5044653;28;20034;-69
2021/11/13 08:29:31;;;;;;;4.93;1.65;;;;;;;12.04;89.14;101133.66;5044838;28;20034;-70
2021/11/13 08:31:57;;;;;;;4.53;1.70;;;;;;;12.09;89.28;101131.91;5044889;28;20045;-70
2021/11/13 08:34:22;;;;;;;8.32;1.83;;;;;;;12.12;89.23;101142.44;5038547;28;20052;-68
2021/11/13 08:36:47;;;;;;;5.25;1.38;;;;;;;12.14;89.17;101148.56;5045044;28;20048;-68
2021/11/13 08:39:13;;;;;;;7.35;2.10;;;;;;;12.13;88.09;101143.28;5042492;28;20052;-70
2021/11/13 08:41:38;;;;;;;7.10;1.65;;;;;;;12.07;89.22;101145.06;5044306;28;20021;-69
2021/11/13 08:44:04;;;;;;;9.20;1.70;;;;;;;12.02;89.06;101144.22;5043463;28;20462;-68
2021/11/13 08:46:31;;;;;;;3.88;1.55;;;;;;;12.02;89.72;101152.13;5043735;28;20026;-69
2021/11/13 08:48:57;;;;;;;5.60;1.50;;;;;;;12.04;90.09;101152.09;5043966;28;20029;-68
2021/11/13 08:51:22;;;;;;;3.72;1.45;;;;;;;12.22;88.74;101159.94;5039745;28;20078;-69
2021/11/13 08:53:53;;;;;;;4.68;1.45;;;;;;;12.33;88.06;101159.06;5044410;28;20021;-68
2021/11/13 08:56:25;;;;;;;6.53;1.75;;;;;;;12.48;87.17;101169.53;5044601;28;20449;-68
2021/11/13 08:58:51;;;;;;;8.10;1.60;;;;;;;12.49;86.32;101173.91;5042449;28;20033;-68
2021/11/13 09:01:18;;;;;;;7.10;1.90;;;;;;;12.43;87.09;101171.28;5042033;28;20033;-69
2021/11/13 09:03:44;;;;;;;3.53;1.20;;;;;;;12.36;86.84;101172.19;5042584;28;20141;-68
2021/11/13 09:06:15;;;;;;;4.07;1.20;;;;;;;12.35;87.09;101168.69;5040034;28;20057;-68
2021/11/13 09:08:42;;;;;;;7.95;1.90;;;;;;;12.33;87.31;101165.19;5035991;28;20030;-68
2021/11/13 09:11:09;;;;;;;6.85;1.65;;;;;;;12.33;87.95;101175.72;5042859;28;20029;-68
2021/11/13 09:13:35;;;;;;;3.38;1.50;;;;;;;12.36;87.63;101170.47;5043173;28;20028;-69
2021/11/13 09:16:02;;;;;;;5.95;1.58;;;;;;;12.34;88.60;101180.09;5044135;28;20104;-68
2021/11/13 09:18:28;;;;;;;4.40;1.33;;;;;;;12.46;87.91;101189.75;5043930;28;20087;-67
2021/11/13 09:20:53;;;;;;;4.55;1.90;;;;;;;12.44;88.09;101194.16;5043902;28;20107;-63
2021/11/13 09:23:19;;;;;;;4.10;1.00;;;;;;;12.50;85.93;101187.97;5042987;28;20046;-63
2021/11/13 09:25:46;;;;;;;4.07;1.10;;;;;;;12.45;85.62;101186.22;5043388;28;20033;-63
2021/11/13 09:28:12;;;;;;;2.40;1.02;;;;;;;12.35;85.93;101187.13;5042580;28;20045;-63
2021/11/13 09:30:39;;;;;;;4.40;1.10;;;;;;;12.26;86.96;101190.66;5042824;28;20036;-64
2021/11/13 09:33:06;;;;;;;3.30;1.00;;;;;;;12.25;86.63;101195.97;5042433;28;20044;-64
2021/11/13 09:35:32;;;;;;;3.97;1.00;;;;;;;12.26;87.51;101197.69;5043396;28;20104;-64
2021/11/13 09:37:58;;;;;;;4.05;1.10;;;;;;;12.27;86.38;101196.84;5043826;28;20029;-65
2021/11/13 09:40:29;;;;;;;3.80;0.90;;;;;;;12.31;86.80;101200.34;5040625;28;20057;-67
2021/11/13 09:42:58;;;;;;;3.50;1.10;;;;;;;12.26;86.96;101206.47;5042390;28;20152;-66
2021/11/13 09:45:26;;;;;;;5.28;1.45;;;;;;;12.27;87.44;101205.59;5041546;28;20564;-66
2021/11/13 09:47:54;;;;;;;2.22;1.00;;;;;;;12.28;87.71;101211.75;5037979;28;20631;-66
2021/11/13 09:50:22;;;;;;;5.93;1.38;;;;;;;12.33;87.90;101207.34;5043011;28;20060;-66
2021/11/13 09:52:48;;;;;;;2.13;0.98;;;;;;;12.33;87.79;101207.34;5042087;28;20034;-64
2021/11/13 09:55:18;;;;;;;3.75;1.10;;;;;;;12.40;87.12;101211.72;5038984;28;20032;-66
2021/11/13 09:57:44;;;;;;;;;;;;;;;12.38;86.37;101212.59;5043245;28;20801;-66
2021/11/13 10:00:13;;;;;;;4.57;1.25;;;;;;;12.42;87.50;101220.50;5040301;28;19925;-66
2021/11/13 10:02:40;;;;;;;5.57;1.27;;;;;;;12.64;87.63;101231.81;5039951;28;20060;-66
2021/11/13 10:05:06;;;;;;;4.18;1.05;;;;;;;12.88;86.65;101232.59;5036259;28;20037;-67
2021/11/13 10:07:33;;;;;;;4.70;1.05;;;;;;;13.01;85.13;101233.44;5041877;28;20120;-66
2021/11/13 10:10:00;;;;;;;5.70;1.10;;;;;;;13.12;83.98;101235.97;5037012;28;20034;-66
2021/11/13 10:12:37;;;;;;;2.90;1.30;;;;;;;13.15;83.35;101231.56;5042557;28;20370;-66
2021/11/13 10:15:31;;;;;;;6.13;1.27;;;;;;;12.94;83.84;101229.94;5040817;28;20505;-66
2021/11/13 10:18:12;;;;;;;2.20;1.13;;;;;;;12.90;84.99;101236.13;5038485;28;20555;-66
2021/11/13 10:20:42;;;;;;;6.43;1.33;;;;;;;12.93;84.24;101229.94;5038366;28;20025;-66
2021/11/13 10:23:07;;;;;;;2.60;1.25;;;;;;;13.10;83.76;101235.13;5038572;28;20042;-67
2021/11/13 10:25:34;;;;;;;4.22;1.13;;;;;;;13.27;80.66;101238.56;5040160;28;20053;-68
2021/11/13 10:28:27;;;;;;;4.47;1.27;;;;;;;13.25;80.90;101233.28;5042658;28;20029;-68
2021/11/13 10:31:15;;;;;;;1.38;0.85;;;;;;;13.20;82.08;101242.09;5038468;28;20592;-68
2021/11/13 10:33:41;;;;;;;2.85;1.00;;;;;;;13.10;81.24;101243.94;5039482;28;20037;-68
2021/11/13 10:36:07;;;;;;;3.50;1.20;;;;;;;13.08;81.74;101245.72;5042459;28;20033;-69
2021/11/13 10:38:33;;;;;;;2.95;1.10;;;;;;;12.98;81.01;101243.97;5040575;28;20031;-68
2021/11/13 10:41:03;;;;;;;2.38;1.10;;;;;;;12.88;81.00;101243.16;5028675;28;20045;-67
2021/11/13 10:43:39;;;;;;;5.05;0.70;;;;;;;12.73;81.86;101243.22;5037094;28;20033;-67
2021/11/13 10:46:09;;;;;;;4.70;0.90;;;;;;;12.69;82.88;101247.63;5036194;28;20029;-68
2021/11/13 10:48:35;;;;;;;;;;;;;;;12.70;83.13;101249.38;5040118;28;20030;-67
2021/11/13 10:51:07;;;;;;;6.38;1.23;;;;;;;12.79;82.92;101240.56;5044004;28;19920;-66
2021/11/13 10:53:33;;;;;;;3.88;1.30;;;;;;;12.83;82.09;101247.56;5041846;28;20022;-68
2021/11/13 10:56:13;;;;;;;3.65;1.25;;;;;;;12.91;82.59;101250.16;5041811;28;20029;-68
2021/11/13 10:58:43;;;;;;;6.28;1.50;;;;;;;12.88;82.25;101259.84;5041814;28;20025;-69
2021/11/13 11:01:25;;;;;;;9.02;1.45;;;;;;;12.91;83.61;101255.44;5038589;28;20120;-68
2021/11/13 11:03:53;;;;;;;3.78;1.30;;;;;;;12.97;83.44;101264.22;5044450;28;20057;-68
2021/11/13 11:06:28;;;;;;;6.15;1.35;;;;;;;13.16;82.16;101265.00;5040875;28;20030;-68
2021/11/13 11:08:53;;;;;;;6.70;1.23;;;;;;;13.32;79.91;101264.94;5043322;28;20060;-68
2021/11/13 11:11:36;;;;;;;5.80;1.40;;;;;;;13.25;80.25;101262.31;5044736;28;20029;-66
2021/11/13 11:14:04;;;;;;;4.72;1.33;;;;;;;13.26;81.36;101258.75;5043920;28;20128;-67
2021/11/13 11:16:38;;;;;;;10.73;1.75;;;;;;;13.29;81.41;101265.81;5041388;28;20106;-66
2021/11/13 11:19:07;;;;;;;3.35;1.42;;;;;;;13.38;81.61;101264.88;5039458;28;20022;-66
2021/11/13 11:21:45;;;;;;;7.50;1.48;;;;;;;13.47;81.41;101263.97;5036922;28;20025;-65